Time;durP1;ratioP1;P1;durP2;ratioP2;P2;SDS_P1;SDS_P2;PMS_P1;PMS_P2;Temp;Humidity;BMP_temperature;BMP_pressure;BME280_temperature;BME280_humidity;BME280_pressure;Samples;Min_cycle;Max_cycle;Signal;HPM_P1;HPM_P2
2022/10/01 00:00:52;;;;;;;11.50;6.83;;;11.90;99.90;;;;;;5074753;28;20209;-77
2022/10/01 00:03:19;;;;;;;8.13;7.13;;;11.80;99.90;;;;;;5081152;28;20279;-71
2022/10/01 00:05:46;;;;;;;6.83;6.23;;;11.70;99.90;;;;;;5080618;28;20614;-73
2022/10/01 00:08:15;;;;;;;6.73;6.13;;;11.60;99.90;;;;;;5080717;28;20183;-68
2022/10/01 00:10:42;;;;;;;6.20;5.53;;;11.70;99.90;;;;;;5089099;28;20492;-75
2022/10/01 00:13:09;;;;;;;6.97;6.33;;;11.70;99.90;;;;;;5080346;28;20317;-72
2022/10/01 00:15:38;;;;;;;6.47;5.70;;;11.80;99.90;;;;;;5074454;28;20578;-78
2022/10/01 00:18:04;;;;;;;6.63;6.07;;;11.80;99.90;;;;;;5078818;28;20176;-71
2022/10/01 00:20:30;;;;;;;6.70;6.10;;;11.80;99.90;;;;;;5080665;28;20671;-74
2022/10/01 00:22:56;;;;;;;6.03;5.53;;;11.70;99.90;;;;;;5078678;28;20192;-75
2022/10/01 00:25:24;;;;;;;9.43;6.53;;;11.80;99.90;;;;;;5079033;28;20207;-77
2022/10/01 00:27:50;;;;;;;7.13;5.70;;;11.80;99.90;;;;;;5075638;28;20270;-69
2022/10/01 00:30:16;;;;;;;7.83;5.30;;;11.80;99.90;;;;;;5078895;28;20605;-77
2022/10/01 00:32:42;;;;;;;5.00;4.60;;;11.70;99.90;;;;;;5078766;28;20578;-76
2022/10/01 00:35:08;;;;;;;4.80;4.40;;;11.70;99.90;;;;;;5075543;28;20202;-70
2022/10/01 00:37:37;;;;;;;4.57;4.13;;;11.80;99.90;;;;;;5080688;28;20198;-70
2022/10/01 00:40:05;;;;;;;3.97;3.63;;;11.80;99.90;;;;;;5075371;28;20249;-73
2022/10/01 00:42:31;;;;;;;4.10;3.80;;;11.70;99.90;;;;;;5075047;28;20225;-69
2022/10/01 00:45:01;;;;;;;3.97;3.67;;;11.70;99.90;;;;;;5083284;28;20226;-76
2022/10/01 00:47:30;;;;;;;4.37;3.90;;;11.60;99.90;;;;;;5078021;28;20179;-74
2022/10/01 00:50:05;;;;;;;3.53;3.23;;;11.60;99.90;;;;;;5081233;28;20167;-77
2022/10/01 00:52:33;;;;;;;3.37;3.07;;;11.60;99.90;;;;;;5079574;28;20182;-77
2022/10/01 00:55:35;;;;;;;2.93;2.73;;;11.70;99.90;;;;;;5078859;28;20222;-76
2022/10/01 00:58:02;;;;;;;2.17;2.00;;;11.70;99.90;;;;;;5073164;28;20249;-69
2022/10/01 01:00:29;;;;;;;4.67;2.90;;;11.50;99.90;;;;;;5075324;28;20521;-75
2022/10/01 01:02:55;;;;;;;2.20;2.07;;;11.40;99.90;;;;;;5075136;28;20195;-75
2022/10/01 01:05:21;;;;;;;2.63;2.40;;;11.50;99.90;;;;;;5080182;28;20225;-69
2022/10/01 01:07:50;;;;;;;2.30;2.20;;;11.60;99.90;;;;;;5077155;28;20210;-82
2022/10/01 01:10:21;;;;;;;2.73;2.47;;;11.60;99.90;;;;;;5077000;28;20252;-73
2022/10/01 01:13:15;;;;;;;3.73;2.37;;;11.60;99.90;;;;;;5081413;28;20649;-70
2022/10/01 01:16:02;;;;;;;3.37;2.30;;;11.50;99.90;;;;;;5079099;28;20183;-70
2022/10/01 01:18:59;;;;;;;3.90;2.17;;;11.40;99.90;;;;;;5074960;28;20270;-76
2022/10/01 01:21:43;;;;;;;2.73;2.20;;;11.40;99.90;;;;;;5074657;28;20229;-72
2022/10/01 01:24:36;;;;;;;2.03;1.93;;;11.40;99.90;;;;;;5074821;28;20345;-74
2022/10/01 01:27:34;;;;;;;2.20;2.00;;;11.00;99.90;;;;;;5074839;28;20534;-77
2022/10/01 01:30:15;;;;;;;1.40;1.40;;;9.20;99.90;;;;;;5072403;28;20188;-81
2022/10/01 01:32:51;;;;;;;3.13;1.77;;;9.40;99.90;;;;;;5075420;28;20578;-71
2022/10/01 01:35:31;;;;;;;1.73;1.63;;;9.40;99.90;;;;;;5084355;28;20212;-73
2022/10/01 01:38:02;;;;;;;1.93;1.60;;;9.60;99.90;;;;;;5085861;28;20179;-68
2022/10/01 01:40:31;;;;;;;3.13;1.47;;;9.70;99.90;;;;;;5085012;28;20274;-67
2022/10/01 01:42:59;;;;;;;1.70;1.60;;;9.40;99.90;;;;;;5078505;28;20194;-69
2022/10/01 01:45:29;;;;;;;1.80;1.70;;;9.40;99.90;;;;;;5075483;28;20206;-68
2022/10/01 01:47:57;;;;;;;1.43;1.33;;;10.80;99.90;;;;;;5074749;28;20258;-72
2022/10/01 01:50:25;;;;;;;1.47;1.37;;;11.20;99.90;;;;;;5080818;28;20182;-69
2022/10/01 01:52:53;;;;;;;1.00;1.00;;;11.10;99.90;;;;;;5074646;28;20647;-69
2022/10/01 01:55:22;;;;;;;1.50;1.20;;;11.20;99.90;;;;;;5076239;28;20175;-71
2022/10/01 01:57:48;;;;;;;1.50;1.40;;;11.20;99.90;;;;;;5078423;28;20186;-70
2022/10/01 02:00:14;;;;;;;0.90;0.90;;;11.20;99.90;;;;;;5084334;28;20244;-75
2022/10/01 02:02:47;;;;;;;2.27;1.43;;;11.30;99.90;;;;;;5078095;28;20638;-69
2022/10/01 02:05:20;;;;;;;1.00;1.00;;;11.20;99.90;;;;;;5077641;28;20195;-67
2022/10/01 02:07:59;;;;;;;3.13;1.27;;;11.10;99.90;;;;;;5077676;28;20235;-72
2022/10/01 02:10:30;;;;;;;1.30;1.20;;;11.20;99.90;;;;;;5078546;28;20194;-78
2022/10/01 02:13:12;;;;;;;2.37;1.40;;;11.20;99.90;;;;;;5088893;28;20235;-73
2022/10/01 02:16:03;;;;;;;1.30;1.30;;;11.10;99.90;;;;;;5084351;28;20223;-73
2022/10/01 02:18:47;;;;;;;2.60;1.03;;;11.00;99.90;;;;;;5078195;28;20222;-78
2022/10/01 02:21:22;;;;;;;1.70;1.07;;;11.20;99.90;;;;;;5077813;28;20210;-78
2022/10/01 02:24:13;;;;;;;2.10;1.27;;;11.20;99.90;;;;;;5084672;28;20199;-71
2022/10/01 02:26:42;;;;;;;4.53;1.23;;;11.40;99.90;;;;;;5077999;28;20233;-77
2022/10/01 02:29:12;;;;;;;0.90;0.90;;;11.40;99.90;;;;;;5084445;28;20183;-70
2022/10/01 02:31:40;;;;;;;1.53;1.13;;;11.50;99.90;;;;;;5082844;28;20599;-71
2022/10/01 02:34:06;;;;;;;0.90;0.90;;;11.40;99.90;;;;;;5076839;28;20707;-82
2022/10/01 02:36:34;;;;;;;5.03;1.30;;;11.40;99.90;;;;;;5077861;28;20175;-79
2022/10/01 02:39:02;;;;;;;0.90;0.90;;;11.50;99.90;;;;;;5079192;28;20605;-72
2022/10/01 02:41:34;;;;;;;0.60;0.60;;;11.50;99.90;;;;;;5079020;28;20179;-73
2022/10/01 02:44:17;;;;;;;0.70;0.70;;;11.50;99.90;;;;;;5080563;28;20194;-69
2022/10/01 02:46:49;;;;;;;0.70;0.70;;;11.50;99.90;;;;;;5076157;28;20620;-69
2022/10/01 02:49:15;;;;;;;1.90;0.90;;;11.60;99.90;;;;;;5085568;28;20663;-69
2022/10/01 02:51:49;;;;;;;0.90;0.90;;;11.60;99.90;;;;;;5081380;28;20250;-72
2022/10/01 02:54:21;;;;;;;0.87;0.87;;;11.70;99.90;;;;;;5082689;28;20459;-71
2022/10/01 02:59:31;;;;;;;1.27;1.10;;;11.70;99.90;;;;;;5078090;28;20221;-75
2022/10/01 03:01:57;;;;;;;1.10;1.10;;;11.70;99.90;;;;;;5082665;28;20214;-70
2022/10/01 03:04:23;;;;;;;0.80;0.80;;;11.80;99.90;;;;;;5080509;28;20187;-73
2022/10/01 03:06:48;;;;;;;2.77;1.43;;;11.90;99.90;;;;;;5078671;28;20176;-69
2022/10/01 03:09:14;;;;;;;1.20;1.20;;;11.90;99.90;;;;;;5082223;28;20176;-71
2022/10/01 03:11:41;;;;;;;1.50;1.40;;;11.80;99.90;;;;;;5080210;28;20229;-69
2022/10/01 03:14:07;;;;;;;2.60;1.63;;;11.80;99.90;;;;;;5092763;28;20199;-68
2022/10/01 03:16:33;;;;;;;1.43;1.43;;;11.80;99.90;;;;;;5076971;28;20178;-75
2022/10/01 03:18:59;;;;;;;1.40;1.30;;;11.80;99.90;;;;;;5076638;28;20557;-78
2022/10/01 03:21:25;;;;;;;1.57;1.50;;;11.70;99.90;;;;;;5076928;28;20505;-71
2022/10/01 03:23:51;;;;;;;1.23;1.23;;;11.70;99.90;;;;;;5076322;28;20526;-76
2022/10/01 03:26:17;;;;;;;2.17;1.60;;;11.70;99.90;;;;;;5080519;28;20262;-70
2022/10/01 03:28:42;;;;;;;1.80;1.37;;;11.70;99.90;;;;;;5085301;28;20231;-74
2022/10/01 03:31:10;;;;;;;2.10;1.63;;;11.70;99.90;;;;;;5083737;28;20182;-73
2022/10/01 03:33:35;;;;;;;1.93;1.83;;;11.90;99.90;;;;;;5086188;28;20626;-73
2022/10/01 03:36:05;;;;;;;1.67;1.57;;;11.90;99.90;;;;;;5081429;28;20332;-68
2022/10/01 03:38:31;;;;;;;1.53;1.53;;;11.90;99.90;;;;;;5075980;28;20240;-68
2022/10/01 03:40:56;;;;;;;2.20;2.10;;;11.80;99.90;;;;;;5079225;28;20415;-68
2022/10/01 03:43:22;;;;;;;2.07;1.83;;;11.80;99.90;;;;;;5076939;28;20233;-71
2022/10/01 03:45:48;;;;;;;2.07;1.97;;;11.90;99.90;;;;;;5087275;28;20217;-75
2022/10/01 03:48:14;;;;;;;2.13;2.03;;;12.00;99.90;;;;;;5083243;28;20182;-74
2022/10/01 03:50:39;;;;;;;1.83;1.77;;;12.00;99.90;;;;;;5082883;28;20181;-70
2022/10/01 03:53:05;;;;;;;5.87;2.07;;;12.00;99.90;;;;;;5078183;28;20182;-71
2022/10/01 03:55:31;;;;;;;1.93;1.83;;;11.90;99.90;;;;;;5075221;28;20175;-71
2022/10/01 03:57:57;;;;;;;1.93;1.83;;;12.00;99.90;;;;;;5082198;28;20180;-75
2022/10/01 04:00:24;;;;;;;1.77;1.77;;;11.90;99.90;;;;;;5074408;28;20191;-73
2022/10/01 04:02:50;;;;;;;2.00;1.90;;;12.00;99.90;;;;;;5084236;28;20194;-71
2022/10/01 04:05:17;;;;;;;2.17;2.07;;;12.00;99.90;;;;;;5079179;28;20219;-67
2022/10/01 04:07:43;;;;;;;1.87;1.77;;;12.10;99.90;;;;;;5079490;28;20190;-77
2022/10/01 04:10:09;;;;;;;1.80;1.67;;;12.20;99.90;;;;;;5075204;28;20567;-70
2022/10/01 04:12:35;;;;;;;2.20;2.10;;;12.30;99.90;;;;;;5075569;28;20182;-72
2022/10/01 04:15:01;;;;;;;1.70;1.70;;;12.30;99.90;;;;;;5080722;28;20214;-69
2022/10/01 04:17:26;;;;;;;1.93;1.83;;;12.30;99.90;;;;;;5080886;28;20190;-69
2022/10/01 04:19:52;;;;;;;1.90;1.80;;;12.30;99.90;;;;;;5078899;28;20192;-70
2022/10/01 04:22:18;;;;;;;9.07;1.80;;;12.40;99.90;;;;;;5078702;28;20245;-68
2022/10/01 04:24:43;;;;;;;1.83;1.73;;;12.40;99.90;;;;;;5075022;28;20194;-68
2022/10/01 04:27:09;;;;;;;2.87;2.37;;;12.40;99.90;;;;;;5078971;28;20528;-69
2022/10/01 04:29:35;;;;;;;2.37;2.27;;;12.40;99.90;;;;;;5085053;28;20258;-67
2022/10/01 04:32:02;;;;;;;2.37;2.27;;;12.50;99.90;;;;;;5075419;28;20253;-68
2022/10/01 04:37:13;;;;;;;1.93;1.93;;;12.50;99.90;;;;;;5079145;28;20203;-68
2022/10/01 04:39:39;;;;;;;2.67;2.53;;;12.50;99.90;;;;;;5083843;28;20279;-68
2022/10/01 04:42:04;;;;;;;2.33;2.23;;;12.50;99.90;;;;;;5079799;28;20261;-71
2022/10/01 04:44:30;;;;;;;2.63;2.30;;;12.60;99.90;;;;;;5074861;28;20199;-70
2022/10/01 04:46:56;;;;;;;2.77;2.67;;;12.50;99.90;;;;;;5073937;28;20187;-70
2022/10/01 04:49:22;;;;;;;3.17;2.47;;;12.50;99.90;;;;;;5081565;28;20183;-69
2022/10/01 04:51:48;;;;;;;2.40;2.30;;;12.50;99.90;;;;;;5079921;28;20183;-72
2022/10/01 04:54:13;;;;;;;2.30;2.20;;;12.50;99.90;;;;;;5074680;28;20191;-67
2022/10/01 04:56:39;;;;;;;3.03;2.80;;;12.50;99.90;;;;;;5081786;28;20195;-69
2022/10/01 04:59:05;;;;;;;6.80;3.30;;;12.60;99.90;;;;;;5079211;28;20191;-69
2022/10/01 05:01:31;;;;;;;5.73;3.13;;;12.60;99.90;;;;;;5079963;28;20231;-70
2022/10/01 05:03:57;;;;;;;2.93;2.83;;;12.60;99.90;;;;;;5074862;28;20871;-69
2022/10/01 05:06:23;;;;;;;3.27;2.97;;;12.60;99.90;;;;;;5074958;28;20582;-70
2022/10/01 05:08:50;;;;;;;2.77;2.57;;;12.50;99.90;;;;;;5074098;28;20190;-74
2022/10/01 05:11:17;;;;;;;3.10;2.87;;;12.60;99.90;;;;;;5074799;28;20214;-68
2022/10/01 05:13:43;;;;;;;2.93;2.73;;;12.60;99.90;;;;;;5074828;28;20285;-73
2022/10/01 05:16:10;;;;;;;2.77;2.63;;;12.60;99.90;;;;;;5074542;28;20182;-68
2022/10/01 05:18:38;;;;;;;2.10;1.90;;;12.50;99.90;;;;;;5078653;28;20220;-70
2022/10/01 05:21:05;;;;;;;2.33;2.13;;;12.50;99.90;;;;;;5080868;28;20233;-68
2022/10/01 05:23:32;;;;;;;3.23;2.13;;;12.50;99.90;;;;;;5084148;28;20182;-70
2022/10/01 05:25:58;;;;;;;2.10;2.00;;;12.50;99.90;;;;;;5079957;28;20506;-68
2022/10/01 05:28:25;;;;;;;3.63;2.30;;;12.50;99.90;;;;;;5074788;28;20186;-69
2022/10/01 05:30:51;;;;;;;1.83;1.63;;;12.40;99.90;;;;;;5076987;28;20266;-73
2022/10/01 05:33:17;;;;;;;2.17;2.00;;;12.40;99.90;;;;;;5082857;28;20277;-68
2022/10/01 05:35:43;;;;;;;2.47;1.73;;;12.30;99.90;;;;;;5082261;28;20186;-67
2022/10/01 05:38:09;;;;;;;2.13;1.80;;;12.50;99.90;;;;;;5083883;28;20186;-71
2022/10/01 05:40:35;;;;;;;2.23;1.93;;;12.20;99.90;;;;;;5077115;28;20586;-77
2022/10/01 05:43:03;;;;;;;1.90;1.80;;;12.20;99.90;;;;;;5081959;28;20642;-68
2022/10/01 05:45:30;;;;;;;2.40;2.03;;;12.10;99.90;;;;;;5078166;28;20229;-70
2022/10/01 05:48:01;;;;;;;2.43;2.23;;;12.20;99.90;;;;;;5078102;28;20273;-69
2022/10/01 05:50:30;;;;;;;2.30;2.10;;;12.00;99.90;;;;;;5083935;28;20183;-68
2022/10/01 05:52:56;;;;;;;4.93;1.80;;;12.00;99.90;;;;;;5081249;28;20178;-70
2022/10/01 05:55:23;;;;;;;2.50;2.30;;;12.00;99.90;;;;;;5084898;28;20493;-74
2022/10/01 05:57:56;;;;;;;3.17;2.70;;;12.30;99.90;;;;;;5082287;28;20190;-72
2022/10/01 06:00:22;;;;;;;4.63;2.33;;;12.30;99.90;;;;;;5077510;28;20198;-76
2022/10/01 06:02:51;;;;;;;3.63;2.40;;;12.30;99.90;;;;;;5077756;28;20217;-73
2022/10/01 06:05:18;;;;;;;3.73;2.50;;;12.30;99.90;;;;;;5077361;28;20215;-71
2022/10/01 06:07:44;;;;;;;4.33;2.67;;;12.40;99.90;;;;;;5084140;28;20191;-69
2022/10/01 06:10:09;;;;;;;3.67;2.70;;;12.40;99.90;;;;;;5081538;28;20589;-75
2022/10/01 06:12:35;;;;;;;3.43;2.93;;;12.40;99.90;;;;;;5077596;28;20183;-69
2022/10/01 06:15:01;;;;;;;2.57;2.37;;;12.40;99.90;;;;;;5077575;28;20199;-68
2022/10/01 06:17:27;;;;;;;2.87;2.50;;;12.30;99.90;;;;;;5081879;28;20225;-67
2022/10/01 06:19:52;;;;;;;4.83;2.70;;;12.30;99.90;;;;;;5081275;28;20198;-69
2022/10/01 06:22:18;;;;;;;7.33;2.97;;;12.10;99.90;;;;;;5079703;28;20237;-69
2022/10/01 06:24:44;;;;;;;5.07;3.37;;;12.10;99.90;;;;;;5085550;28;20207;-69
2022/10/01 06:27:10;;;;;;;5.17;3.37;;;12.00;99.90;;;;;;5081398;28;20200;-67
2022/10/01 06:29:36;;;;;;;2.97;2.73;;;11.90;99.90;;;;;;5077626;28;20207;-70
2022/10/01 06:32:02;;;;;;;3.47;3.17;;;11.50;99.90;;;;;;5083639;28;20198;-67
2022/10/01 06:34:28;;;;;;;3.77;3.40;;;11.50;99.90;;;;;;5087052;28;20249;-70
2022/10/01 06:36:53;;;;;;;5.90;3.20;;;11.50;99.90;;;;;;5081701;28;20196;-68
2022/10/01 06:39:19;;;;;;;3.27;3.00;;;11.40;99.90;;;;;;5081006;28;20185;-75
2022/10/01 06:41:47;;;;;;;5.93;3.20;;;12.10;99.90;;;;;;5078446;28;20212;-75
2022/10/01 06:44:12;;;;;;;7.57;3.47;;;12.20;99.90;;;;;;5084255;28;20226;-75
2022/10/01 06:46:38;;;;;;;3.53;3.23;;;12.20;99.90;;;;;;5078345;28;20210;-75
2022/10/01 06:49:04;;;;;;;6.80;2.70;;;12.20;99.90;;;;;;5076457;28;20185;-72
2022/10/01 06:54:16;;;;;;;6.60;4.17;;;12.20;99.90;;;;;;5076915;28;20217;-72
2022/10/01 06:56:43;;;;;;;4.60;4.20;;;12.20;99.90;;;;;;5077338;28;20175;-82
2022/10/01 06:59:09;;;;;;;7.40;4.00;;;12.30;99.90;;;;;;5076625;28;20664;-70
2022/10/01 07:01:35;;;;;;;5.73;4.20;;;12.30;99.90;;;;;;5082042;28;20194;-72
2022/10/01 07:04:01;;;;;;;11.27;4.80;;;12.20;99.90;;;;;;5086799;28;20202;-78
2022/10/01 07:06:27;;;;;;;9.50;4.90;;;11.90;99.90;;;;;;5084441;28;20200;-72
2022/10/01 07:08:53;;;;;;;6.90;5.23;;;13.50;99.90;;;;;;5081039;28;20549;-78
2022/10/01 07:11:19;;;;;;;12.23;5.17;;;13.40;99.90;;;;;;5076114;28;20182;-71
2022/10/01 07:13:45;;;;;;;15.47;6.87;;;13.50;99.90;;;;;;5086671;28;20198;-76
2022/10/01 07:16:11;;;;;;;7.13;5.77;;;13.50;99.90;;;;;;5076043;28;20183;-75
2022/10/01 07:18:36;;;;;;;6.07;5.57;;;13.50;99.90;;;;;;5083880;28;20720;-78
2022/10/01 07:21:02;;;;;;;12.33;6.33;;;13.60;99.90;;;;;;5082848;28;20185;-75
2022/10/01 07:23:28;;;;;;;12.10;5.83;;;13.60;99.90;;;;;;5083047;28;20644;-71
2022/10/01 07:25:54;;;;;;;8.30;6.00;;;13.60;99.90;;;;;;5078927;28;20318;-75
2022/10/01 07:28:22;;;;;;;7.07;6.17;;;13.60;99.90;;;;;;5075940;28;20183;-77
2022/10/01 07:31:05;;;;;;;8.33;5.43;;;13.70;99.90;;;;;;5079649;28;20494;-72
2022/10/01 07:33:31;;;;;;;14.27;5.37;;;13.70;99.90;;;;;;5075849;28;20183;-76
2022/10/01 07:36:01;;;;;;;10.57;5.53;;;13.70;99.90;;;;;;5079421;28;20606;-72
2022/10/01 07:38:27;;;;;;;7.57;5.57;;;13.70;99.90;;;;;;5081418;28;20172;-76
2022/10/01 07:40:53;;;;;;;9.37;5.67;;;13.70;99.90;;;;;;5076656;28;20183;-72
2022/10/01 07:43:19;;;;;;;11.47;5.83;;;13.60;99.90;;;;;;5075730;28;20312;-73
2022/10/01 07:46:03;;;;;;;15.97;6.67;;;13.40;99.90;;;;;;5076468;28;20211;-79
2022/10/01 07:48:29;;;;;;;12.93;6.07;;;14.60;99.90;;;;;;5075702;28;20258;-72
2022/10/01 07:50:56;;;;;;;15.87;5.80;;;14.70;99.90;;;;;;5082261;28;20171;-75
2022/10/01 07:53:23;;;;;;;9.23;5.47;;;14.60;99.90;;;;;;5074070;28;20171;-71
2022/10/01 07:55:49;;;;;;;15.47;5.80;;;14.60;99.90;;;;;;5075534;28;20182;-72
2022/10/01 07:58:15;;;;;;;12.20;5.57;;;14.60;99.90;;;;;;5075612;28;20179;-76
2022/10/01 08:00:42;;;;;;;21.00;7.63;;;14.60;99.90;;;;;;5082024;28;20277;-70
2022/10/01 08:03:10;;;;;;;11.97;6.10;;;14.70;99.90;;;;;;5082258;28;20266;-79
2022/10/01 08:05:40;;;;;;;19.67;5.50;;;14.70;99.90;;;;;;5074299;28;20324;-75
2022/10/01 08:08:07;;;;;;;24.13;6.23;;;14.70;99.90;;;;;;5078479;28;20257;-72
2022/10/01 08:10:35;;;;;;;13.47;4.87;;;14.80;99.90;;;;;;5081832;28;20216;-69
2022/10/01 08:13:13;;;;;;;20.90;7.50;;;14.90;99.90;;;;;;5081187;28;20179;-73
2022/10/01 08:15:43;;;;;;;25.17;6.87;;;14.90;99.90;;;;;;5080051;28;20182;-71
2022/10/01 08:18:10;;;;;;;14.10;5.87;;;14.90;99.90;;;;;;5080631;28;20203;-70
2022/10/01 08:20:38;;;;;;;16.37;5.27;;;14.90;99.90;;;;;;5079638;28;20274;-69
2022/10/01 08:23:06;;;;;;;29.40;7.03;;;14.90;99.90;;;;;;5074486;28;20204;-71
2022/10/01 08:25:33;;;;;;;29.63;6.53;;;15.00;99.90;;;;;;5081246;28;20209;-70
2022/10/01 08:27:59;;;;;;;21.47;6.20;;;15.10;99.90;;;;;;5080359;28;20515;-73
2022/10/01 08:30:25;;;;;;;16.07;6.10;;;15.10;99.90;;;;;;5078783;28;20194;-70
2022/10/01 08:32:56;;;;;;;25.87;5.73;;;15.00;99.90;;;;;;5079624;28;20192;-68
2022/10/01 08:35:23;;;;;;;11.47;4.67;;;15.10;99.90;;;;;;5075145;28;20187;-69
2022/10/01 08:37:49;;;;;;;12.80;5.93;;;15.10;99.90;;;;;;5074671;28;20187;-70
2022/10/01 08:40:16;;;;;;;22.60;5.47;;;15.00;99.90;;;;;;5075485;28;20186;-71
2022/10/01 08:42:54;;;;;;;17.70;5.33;;;14.80;99.90;;;;;;5087951;28;20175;-69
2022/10/01 08:45:30;;;;;;;7.83;4.73;;;15.00;99.90;;;;;;5088443;28;20214;-70
2022/10/01 08:48:07;;;;;;;14.07;5.23;;;15.00;99.90;;;;;;5085111;28;20183;-69
2022/10/01 08:50:56;;;;;;;16.60;3.63;;;14.90;99.90;;;;;;5086455;28;20661;-69
2022/10/01 08:53:44;;;;;;;12.23;4.90;;;14.30;99.90;;;;;;5077806;28;20747;-70
2022/10/01 08:56:30;;;;;;;15.87;4.57;;;15.60;99.90;;;;;;5085018;28;20570;-77
2022/10/01 08:58:59;;;;;;;11.80;5.17;;;15.60;99.90;;;;;;5076367;28;20595;-68
2022/10/01 09:01:26;;;;;;;19.23;4.90;;;15.70;99.90;;;;;;5081743;28;20187;-68
2022/10/01 09:03:52;;;;;;;19.77;5.80;;;15.70;99.90;;;;;;5082179;28;20178;-69
2022/10/01 09:06:25;;;;;;;15.37;3.93;;;15.70;99.90;;;;;;5088594;28;20297;-73
2022/10/01 09:09:27;;;;;;;23.30;5.20;;;15.60;99.90;;;;;;5083930;28;20330;-71
2022/10/01 09:12:04;;;;;;;19.20;5.03;;;15.70;99.90;;;;;;5090864;28;20482;-72
2022/10/01 09:14:56;;;;;;;12.23;4.23;;;15.80;99.90;;;;;;5091047;28;20636;-81
2022/10/01 09:17:54;;;;;;;13.20;4.43;;;15.90;99.90;;;;;;5088493;28;20202;-74
2022/10/01 09:20:24;;;;;;;10.03;3.60;;;15.70;99.90;;;;;;5068655;28;20626;-80
2022/10/01 09:23:15;;;;;;;20.53;4.17;;;15.70;99.90;;;;;;5091179;28;20248;-73
2022/10/01 09:25:43;;;;;;;12.87;5.20;;;15.60;99.90;;;;;;5078790;28;20415;-71
2022/10/01 09:28:20;;;;;;;16.00;4.17;;;15.60;99.90;;;;;;5082789;28;20248;-74
2022/10/01 09:30:53;;;;;;;14.50;4.30;;;15.60;99.90;;;;;;5079053;28;20224;-76
2022/10/01 09:33:21;;;;;;;11.50;3.73;;;15.70;99.90;;;;;;5078404;28;20182;-71
2022/10/01 09:36:06;;;;;;;16.10;4.23;;;15.70;99.90;;;;;;5077939;28;20319;-76
2022/10/01 09:38:35;;;;;;;8.17;3.30;;;15.70;99.90;;;;;;5078313;28;20187;-70
2022/10/01 09:41:01;;;;;;;9.20;3.40;;;15.70;99.90;;;;;;5077568;28;20187;-70
2022/10/01 09:43:30;;;;;;;11.57;3.80;;;15.60;99.90;;;;;;5077950;28;20576;-71
2022/10/01 09:45:56;;;;;;;12.73;3.17;;;14.70;99.90;;;;;;5082572;28;20215;-68
2022/10/01 09:48:45;;;;;;;17.07;4.00;;;13.20;99.90;;;;;;5084844;28;20189;-68
2022/10/01 09:51:18;;;;;;;15.67;4.20;;;16.30;99.90;;;;;;5084192;28;20590;-71
2022/10/01 09:53:50;;;;;;;13.63;3.10;;;16.40;99.90;;;;;;5087105;28;20258;-70
2022/10/01 09:56:25;;;;;;;10.27;3.50;;;16.20;99.90;;;;;;5078062;28;20275;-68
2022/10/01 09:58:55;;;;;;;14.40;4.90;;;16.20;99.90;;;;;;5084017;28;20266;-68
2022/10/01 10:01:43;;;;;;;15.03;5.10;;;16.10;99.90;;;;;;5081698;28;20195;-74
2022/10/01 10:04:09;;;;;;;21.73;5.47;;;16.10;99.90;;;;;;5083400;28;20524;-72
2022/10/01 10:06:35;;;;;;;13.67;3.73;;;16.10;99.90;;;;;;5084016;28;20681;-78
2022/10/01 10:09:01;;;;;;;11.53;3.80;;;16.20;99.90;;;;;;5089593;28;20186;-69
2022/10/01 10:11:30;;;;;;;14.00;3.67;;;16.10;99.90;;;;;;5084704;28;20186;-75
2022/10/01 10:14:03;;;;;;;12.23;3.77;;;16.10;99.90;;;;;;5091568;28;20260;-69
2022/10/01 10:16:31;;;;;;;14.17;3.73;;;16.20;99.90;;;;;;5088252;28;20179;-73
2022/10/01 10:19:21;;;;;;;13.83;3.77;;;16.20;99.90;;;;;;5092257;28;20487;-69
2022/10/01 10:21:59;;;;;;;12.57;4.00;;;16.20;99.90;;;;;;5091085;28;20522;-71
2022/10/01 10:24:33;;;;;;;15.33;3.83;;;16.20;99.90;;;;;;5082178;28;20216;-71
2022/10/01 10:27:02;;;;;;;15.77;4.67;;;16.40;99.90;;;;;;5075745;28;20601;-73
2022/10/01 10:29:36;;;;;;;13.83;3.73;;;16.50;99.90;;;;;;5082820;28;20179;-76
2022/10/01 10:32:16;;;;;;;14.87;4.10;;;16.50;99.90;;;;;;5087101;28;20300;-73
2022/10/01 10:34:45;;;;;;;11.40;4.10;;;16.50;99.90;;;;;;5085159;28;20228;-75
2022/10/01 10:37:18;;;;;;;22.17;5.20;;;17.00;99.90;;;;;;5087545;28;20209;-75
2022/10/01 10:39:52;;;;;;;11.87;3.60;;;16.80;99.90;;;;;;5081965;28;20183;-70
2022/10/01 10:42:21;;;;;;;8.57;4.23;;;16.90;99.90;;;;;;5075641;28;20474;-68
2022/10/01 10:44:50;;;;;;;12.10;4.03;;;17.00;99.90;;;;;;5079387;28;20198;-67
2022/10/01 10:47:19;;;;;;;12.37;4.10;;;17.00;99.90;;;;;;5078614;28;20190;-70
2022/10/01 10:49:46;;;;;;;11.60;3.20;;;17.00;99.90;;;;;;5081191;28;20183;-70
2022/10/01 10:52:35;;;;;;;16.27;4.13;;;17.00;99.90;;;;;;5080808;28;20185;-71
2022/10/01 10:55:21;;;;;;;9.93;3.23;;;16.90;99.90;;;;;;5081048;28;20201;-74
2022/10/01 10:57:48;;;;;;;11.17;4.20;;;16.90;99.90;;;;;;5077500;28;20248;-71
2022/10/01 11:00:24;;;;;;;11.70;4.00;;;16.90;99.90;;;;;;5083261;28;20211;-74
2022/10/01 11:03:03;;;;;;;17.30;4.13;;;16.90;99.90;;;;;;5079138;28;20198;-76
2022/10/01 11:05:38;;;;;;;12.10;2.93;;;17.00;99.90;;;;;;5090723;28;20273;-76
2022/10/01 11:08:06;;;;;;;14.60;5.37;;;17.00;99.90;;;;;;5080119;28;20266;-69
2022/10/01 11:11:06;;;;;;;13.73;3.27;;;17.00;99.90;;;;;;5082979;28;20174;-72
2022/10/01 11:13:44;;;;;;;9.40;3.00;;;16.90;99.90;;;;;;5077722;28;20206;-68
2022/10/01 11:16:36;;;;;;;8.03;3.00;;;16.70;99.90;;;;;;5081445;28;20186;-79
2022/10/01 11:19:06;;;;;;;13.93;4.23;;;16.20;99.90;;;;;;5078112;28;20232;-73
2022/10/01 11:21:32;;;;;;;12.33;3.27;;;15.40;99.90;;;;;;5079563;28;20191;-77
2022/10/01 11:24:20;;;;;;;16.83;3.47;;;17.50;99.90;;;;;;5088638;28;20193;-76
2022/10/01 11:27:21;;;;;;;6.57;2.80;;;17.70;99.90;;;;;;5084307;28;20314;-73
2022/10/01 11:29:56;;;;;;;11.43;3.73;;;15.30;99.90;;;;;;5081994;28;20613;-70
2022/10/01 11:32:44;;;;;;;9.20;2.57;;;-37.20;99.90;;;;;;5088975;28;20648;-75
2022/10/01 11:35:42;;;;;;;6.20;2.27;;;18.80;99.90;;;;;;5075440;28;20187;-73
2022/10/01 11:38:35;;;;;;;8.30;2.20;;;19.70;99.90;;;;;;5083312;28;20193;-71
2022/10/01 11:41:13;;;;;;;5.87;2.20;;;20.00;99.90;;;;;;5082309;28;20780;-72
2022/10/01 11:43:59;;;;;;;6.13;2.27;;;19.50;99.90;;;;;;5075720;28;20190;-69
2022/10/01 11:46:42;;;;;;;13.13;2.00;;;19.00;99.90;;;;;;5082432;28;20178;-73
2022/10/01 11:49:17;;;;;;;9.17;3.47;;;18.40;99.90;;;;;;5081396;28;20478;-73
2022/10/01 11:51:53;;;;;;;8.83;2.50;;;18.70;99.90;;;;;;5076579;28;20271;-72
2022/10/01 11:54:25;;;;;;;7.40;2.40;;;19.20;99.90;;;;;;5077843;28;20175;-70
2022/10/01 11:59:49;;;;;;;4.77;2.07;;;20.00;99.90;;;;;;5078797;28;20248;-70
2022/10/01 12:02:45;;;;;;;7.57;2.20;;;20.40;99.90;;;;;;5079548;28;20190;-69
2022/10/01 12:05:21;;;;;;;11.20;2.50;;;20.10;99.90;;;;;;5079273;28;20195;-69
2022/10/01 12:07:56;;;;;;;6.33;1.80;;;19.80;99.90;;;;;;5079313;28;20181;-72
2022/10/01 12:10:42;;;;;;;10.30;3.23;;;19.20;99.90;;;;;;5084812;28;20183;-70
2022/10/01 12:13:21;;;;;;;13.30;3.67;;;19.10;99.90;;;;;;5075331;28;20266;-69
2022/10/01 12:16:03;;;;;;;9.93;2.70;;;19.60;99.90;;;;;;5075700;28;20201;-72
2022/10/01 12:18:53;;;;;;;6.60;2.67;;;19.30;99.90;;;;;;5075430;28;20557;-72
2022/10/01 12:21:36;;;;;;;6.13;2.53;;;20.60;99.90;;;;;;5074742;28;20228;-70
2022/10/01 12:24:24;;;;;;;5.23;2.63;;;20.80;99.90;;;;;;5075007;28;20566;-71
2022/10/01 12:27:10;;;;;;;6.17;1.83;;;20.60;99.90;;;;;;5074844;28;20184;-74
2022/10/01 12:29:49;;;;;;;9.10;2.60;;;20.00;99.90;;;;;;5086419;28;20186;-70
2022/10/01 12:32:21;;;;;;;7.37;2.83;;;19.80;99.90;;;;;;5082728;28;20171;-70
2022/10/01 12:35:09;;;;;;;4.37;2.20;;;19.90;99.90;;;;;;5074937;28;20198;-69
2022/10/01 12:38:26;;;;;;;9.10;3.10;;;20.10;99.90;;;;;;5075050;28;20180;-73
2022/10/01 12:41:31;;;;;;;8.57;2.80;;;19.30;99.90;;;;;;5066603;28;20195;-69
2022/10/01 12:44:16;;;;;;;6.63;2.20;;;16.90;99.90;;;;;;5082543;28;20214;-71
2022/10/01 12:47:17;;;;;;;6.73;2.47;;;18.40;99.90;;;;;;5053846;28;20213;-68
2022/10/01 12:49:49;;;;;;;5.53;2.17;;;18.90;99.90;;;;;;5086235;28;20175;-68
2022/10/01 12:52:17;;;;;;;6.03;2.37;;;18.10;99.90;;;;;;5078416;28;20505;-71
2022/10/01 12:55:03;;;;;;;7.67;2.50;;;21.10;99.90;;;;;;5075136;28;20201;-70
2022/10/01 12:57:35;;;;;;;15.80;2.70;;;21.00;99.90;;;;;;5083613;28;20185;-69
2022/10/01 13:00:22;;;;;;;6.10;2.00;;;22.40;99.90;;;;;;5074642;28;20190;-71
2022/10/01 13:02:57;;;;;;;7.13;2.10;;;22.60;99.80;;;;;;5081710;28;20194;-70
2022/10/01 13:05:44;;;;;;;11.33;3.10;;;23.10;99.30;;;;;;5078294;28;20186;-69
2022/10/01 13:08:16;;;;;;;3.77;1.83;;;22.70;99.50;;;;;;5074779;28;20179;-70
2022/10/01 13:10:58;;;;;;;5.03;1.70;;;22.30;99.90;;;;;;5073968;28;20627;-69
2022/10/01 13:13:32;;;;;;;7.50;2.17;;;22.40;99.90;;;;;;5079437;28;20187;-68
2022/10/01 13:16:13;;;;;;;3.77;1.37;;;22.80;98.10;;;;;;5073584;28;20187;-72
2022/10/01 13:19:02;;;;;;;5.27;1.70;;;23.30;97.00;;;;;;5080219;28;20186;-69